Terminal Aerodrome Forecast
Issued by NWS

Home | Current Version | Previous Version | Graphics & Text | Print | Product List | Glossary On
Versions: 1 2 3 4 5 6 7 8 9 10 11 12 13 14 15 16 17 18 19
000
FTUS43 KBIS 231552 AAB
TAFMOT
TAF AMD
KMOT 231552Z 2316/2412 09009KT P6SM BKN150
     FM232000 12012KT P6SM VCTS SCT045CB BKN100
     FM240400 10007KT P6SM FEW045 SCT250
     FM240700 13007KT P6SM FEW060 SCT250=

USA.gov is the U.S. government's official web portal to all federal, state and local government web resources and services.